sensor_id;sensor_type;location;lat;lon;timestamp;pressure;altitude;pressure_sealevel;temperature;humidity
28167;BME280;15455;53.376;-6.262;2022-07-06T00:01:15;102659.91;;;15.43;100.00
28167;BME280;15455;53.376;-6.262;2022-07-06T00:04:02;102657.22;;;15.39;100.00
28167;BME280;15455;53.376;-6.262;2022-07-06T00:06:48;102664.19;;;15.35;100.00
28167;BME280;15455;53.376;-6.262;2022-07-06T00:09:34;102666.81;;;15.34;100.00
28167;BME280;15455;53.376;-6.262;2022-07-06T00:12:19;102672.97;;;15.31;100.00
28167;BME280;15455;53.376;-6.262;2022-07-06T00:15:05;102665.94;;;15.30;100.00
28167;BME280;15455;53.376;-6.262;2022-07-06T00:17:51;102665.91;;;15.25;100.00
28167;BME280;15455;53.376;-6.262;2022-07-06T00:20:37;102677.28;;;15.24;100.00
28167;BME280;15455;53.376;-6.262;2022-07-06T00:23:22;102673.69;;;15.16;100.00
28167;BME280;15455;53.376;-6.262;2022-07-06T00:26:08;102669.22;;;15.07;100.00
28167;BME280;15455;53.376;-6.262;2022-07-06T00:28:53;102669.19;;;15.04;100.00
28167;BME280;15455;53.376;-6.262;2022-07-06T00:31:39;102670.94;;;15.01;100.00
28167;BME280;15455;53.376;-6.262;2022-07-06T00:34:25;102678.72;;;14.94;100.00
28167;BME280;15455;53.376;-6.262;2022-07-06T00:37:10;102675.22;;;14.92;100.00
28167;BME280;15455;53.376;-6.262;2022-07-06T00:39:56;102679.53;;;14.87;100.00
28167;BME280;15455;53.376;-6.262;2022-07-06T00:42:44;102685.59;;;14.80;100.00
28167;BME280;15455;53.376;-6.262;2022-07-06T00:45:29;102675.06;;;14.79;100.00
28167;BME280;15455;53.376;-6.262;2022-07-06T00:48:15;102666.31;;;14.78;100.00
28167;BME280;15455;53.376;-6.262;2022-07-06T00:51:01;102650.50;;;14.75;100.00
28167;BME280;15455;53.376;-6.262;2022-07-06T00:53:46;102648.69;;;14.71;100.00
28167;BME280;15455;53.376;-6.262;2022-07-06T00:56:34;102645.09;;;14.64;100.00
28167;BME280;15455;53.376;-6.262;2022-07-06T00:59:20;102640.75;;;14.63;100.00
28167;BME280;15455;53.376;-6.262;2022-07-06T01:02:05;102645.03;;;14.61;100.00
28167;BME280;15455;53.376;-6.262;2022-07-06T01:04:51;102645.00;;;14.58;100.00
28167;BME280;15455;53.376;-6.262;2022-07-06T01:07:38;102662.53;;;14.56;100.00
28167;BME280;15455;53.376;-6.262;2022-07-06T01:10:24;102667.72;;;14.54;100.00
28167;BME280;15455;53.376;-6.262;2022-07-06T01:13:10;102655.50;;;14.55;100.00
28167;BME280;15455;53.376;-6.262;2022-07-06T01:15:55;102658.09;;;14.53;100.00
28167;BME280;15455;53.376;-6.262;2022-07-06T01:18:41;102645.78;;;14.49;100.00
28167;BME280;15455;53.376;-6.262;2022-07-06T01:21:27;102655.31;;;14.41;100.00
28167;BME280;15455;53.376;-6.262;2022-07-06T01:24:12;102657.88;;;14.35;100.00
28167;BME280;15455;53.376;-6.262;2022-07-06T01:26:58;102656.06;;;14.29;100.00
28167;BME280;15455;53.376;-6.262;2022-07-06T01:29:44;102657.69;;;14.22;100.00
28167;BME280;15455;53.376;-6.262;2022-07-06T01:32:29;102655.03;;;14.18;100.00
28167;BME280;15455;53.376;-6.262;2022-07-06T01:35:15;102660.22;;;14.13;100.00
28167;BME280;15455;53.376;-6.262;2022-07-06T01:38:01;102649.69;;;14.10;100.00
28167;BME280;15455;53.376;-6.262;2022-07-06T01:40:46;102644.38;;;14.07;100.00
28167;BME280;15455;53.376;-6.262;2022-07-06T01:43:31;102647.88;;;14.06;100.00
28167;BME280;15455;53.376;-6.262;2022-07-06T01:46:17;102644.38;;;14.07;100.00
28167;BME280;15455;53.376;-6.262;2022-07-06T01:49:05;102632.16;;;14.09;100.00
28167;BME280;15455;53.376;-6.262;2022-07-06T01:51:51;102631.25;;;14.07;100.00
28167;BME280;15455;53.376;-6.262;2022-07-06T01:54:38;102632.13;;;14.06;100.00
28167;BME280;15455;53.376;-6.262;2022-07-06T01:57:25;102627.72;;;14.05;100.00
28167;BME280;15455;53.376;-6.262;2022-07-06T02:00:11;102622.44;;;14.03;100.00
28167;BME280;15455;53.376;-6.262;2022-07-06T02:02:57;102612.78;;;14.01;100.00
28167;BME280;15455;53.376;-6.262;2022-07-06T02:05:43;102607.53;;;14.01;100.00
28167;BME280;15455;53.376;-6.262;2022-07-06T02:08:28;102598.81;;;14.02;100.00
28167;BME280;15455;53.376;-6.262;2022-07-06T02:11:14;102605.81;;;14.01;100.00
28167;BME280;15455;53.376;-6.262;2022-07-06T02:14:01;102612.78;;;14.01;100.00
28167;BME280;15455;53.376;-6.262;2022-07-06T02:16:47;102620.66;;;14.01;100.00
28167;BME280;15455;53.376;-6.262;2022-07-06T02:19:35;102618.94;;;14.03;100.00
28167;BME280;15455;53.376;-6.262;2022-07-06T02:22:21;102630.31;;;14.03;100.00
28167;BME280;15455;53.376;-6.262;2022-07-06T02:25:07;102624.22;;;14.04;100.00
28167;BME280;15455;53.376;-6.262;2022-07-06T02:27:53;102609.34;;;14.06;100.00
28167;BME280;15455;53.376;-6.262;2022-07-06T02:30:39;102600.59;;;14.06;100.00
28167;BME280;15455;53.376;-6.262;2022-07-06T02:33:25;102597.97;;;14.04;100.00
28167;BME280;15455;53.376;-6.262;2022-07-06T02:36:11;102597.97;;;14.04;100.00
28167;BME280;15455;53.376;-6.262;2022-07-06T02:38:57;102604.06;;;14.03;100.00
28167;BME280;15455;53.376;-6.262;2022-07-06T02:41:43;102603.25;;;14.06;100.00
28167;BME280;15455;53.376;-6.262;2022-07-06T02:44:29;102597.97;;;14.06;100.00
28167;BME280;15455;53.376;-6.262;2022-07-06T02:47:14;102597.13;;;14.05;100.00
28167;BME280;15455;53.376;-6.262;2022-07-06T02:50:00;102599.75;;;14.07;100.00
28167;BME280;15455;53.376;-6.262;2022-07-06T02:52:46;102608.50;;;14.07;100.00
28167;BME280;15455;53.376;-6.262;2022-07-06T02:55:32;102604.13;;;14.10;100.00
28167;BME280;15455;53.376;-6.262;2022-07-06T02:58:18;102603.31;;;14.12;100.00
28167;BME280;15455;53.376;-6.262;2022-07-06T03:01:05;102608.56;;;14.14;100.00
28167;BME280;15455;53.376;-6.262;2022-07-06T03:03:52;102605.09;;;14.15;100.00
28167;BME280;15455;53.376;-6.262;2022-07-06T03:06:38;102607.72;;;14.15;100.00
28167;BME280;15455;53.376;-6.262;2022-07-06T03:09:24;102610.38;;;14.16;100.00
28167;BME280;15455;53.376;-6.262;2022-07-06T03:12:10;102610.38;;;14.18;100.00
28167;BME280;15455;53.376;-6.262;2022-07-06T03:14:57;102606.03;;;14.18;100.00
28167;BME280;15455;53.376;-6.262;2022-07-06T03:17:43;102609.53;;;14.19;100.00
28167;BME280;15455;53.376;-6.262;2022-07-06T03:20:30;102606.88;;;14.17;100.00
28167;BME280;15455;53.376;-6.262;2022-07-06T03:23:15;102616.50;;;14.17;100.00
28167;BME280;15455;53.376;-6.262;2022-07-06T03:26:02;102617.38;;;14.17;100.00
28167;BME280;15455;53.376;-6.262;2022-07-06T03:28:50;102618.25;;;14.18;100.00
28167;BME280;15455;53.376;-6.262;2022-07-06T03:31:37;102617.41;;;14.19;100.00
28167;BME280;15455;53.376;-6.262;2022-07-06T03:34:22;102621.78;;;14.18;100.00
28167;BME280;15455;53.376;-6.262;2022-07-06T03:37:08;102622.66;;;14.19;100.00
28167;BME280;15455;53.376;-6.262;2022-07-06T03:39:56;102621.78;;;14.18;100.00
28167;BME280;15455;53.376;-6.262;2022-07-06T03:42:42;102627.91;;;14.17;100.00
28167;BME280;15455;53.376;-6.262;2022-07-06T03:45:29;102627.03;;;14.18;100.00
28167;BME280;15455;53.376;-6.262;2022-07-06T03:48:15;102625.25;;;14.17;100.00
28167;BME280;15455;53.376;-6.262;2022-07-06T03:51:01;102617.41;;;14.19;100.00
28167;BME280;15455;53.376;-6.262;2022-07-06T03:53:50;102616.56;;;14.20;100.00
28167;BME280;15455;53.376;-6.262;2022-07-06T03:56:36;102613.03;;;14.19;100.00
28167;BME280;15455;53.376;-6.262;2022-07-06T03:59:30;102614.78;;;14.19;100.00
28167;BME280;15455;53.376;-6.262;2022-07-06T04:02:15;102613.91;;;14.18;100.00
28167;BME280;15455;53.376;-6.262;2022-07-06T04:05:01;102613.00;;;14.16;100.00
28167;BME280;15455;53.376;-6.262;2022-07-06T04:07:50;102624.34;;;14.15;100.00
28167;BME280;15455;53.376;-6.262;2022-07-06T04:10:37;102620.84;;;14.13;100.00
28167;BME280;15455;53.376;-6.262;2022-07-06T04:13:24;102628.69;;;14.12;100.00
28167;BME280;15455;53.376;-6.262;2022-07-06T04:16:11;102628.66;;;14.09;100.00
28167;BME280;15455;53.376;-6.262;2022-07-06T04:18:57;102623.38;;;14.07;100.00
28167;BME280;15455;53.376;-6.262;2022-07-06T04:21:42;102624.22;;;14.04;100.00
28167;BME280;15455;53.376;-6.262;2022-07-06T04:24:28;102627.72;;;14.05;100.00
28167;BME280;15455;53.376;-6.262;2022-07-06T04:27:14;102625.09;;;14.06;100.00
28167;BME280;15455;53.376;-6.262;2022-07-06T04:30:03;102628.63;;;14.07;100.00
28167;BME280;15455;53.376;-6.262;2022-07-06T04:32:49;102630.34;;;14.05;100.00
28167;BME280;15455;53.376;-6.262;2022-07-06T04:35:36;102628.63;;;14.07;100.00
28167;BME280;15455;53.376;-6.262;2022-07-06T04:38:22;102629.50;;;14.07;100.00
28167;BME280;15455;53.376;-6.262;2022-07-06T04:41:10;102622.47;;;14.06;100.00
28167;BME280;15455;53.376;-6.262;2022-07-06T04:43:56;102629.50;;;14.06;100.00
28167;BME280;15455;53.376;-6.262;2022-07-06T04:46:42;102629.53;;;14.09;100.00
28167;BME280;15455;53.376;-6.262;2022-07-06T04:49:27;102609.38;;;14.08;100.00
28167;BME280;15455;53.376;-6.262;2022-07-06T04:52:13;102612.94;;;14.12;100.00
28167;BME280;15455;53.376;-6.262;2022-07-06T04:54:59;102601.53;;;14.10;100.00
28167;BME280;15455;53.376;-6.262;2022-07-06T04:57:44;102601.59;;;14.13;100.00
28167;BME280;15455;53.376;-6.262;2022-07-06T05:00:31;102592.78;;;14.11;100.00
28167;BME280;15455;53.376;-6.262;2022-07-06T05:03:17;102605.09;;;14.13;100.00
28167;BME280;15455;53.376;-6.262;2022-07-06T05:06:05;102605.97;;;14.15;100.00
28167;BME280;15455;53.376;-6.262;2022-07-06T05:08:51;102592.81;;;14.14;100.00
28167;BME280;15455;53.376;-6.262;2022-07-06T05:11:38;102602.50;;;14.16;100.00
28167;BME280;15455;53.376;-6.262;2022-07-06T05:14:24;102588.50;;;14.16;100.00
28167;BME280;15455;53.376;-6.262;2022-07-06T05:17:11;102597.22;;;14.16;100.00
28167;BME280;15455;53.376;-6.262;2022-07-06T05:19:57;102600.78;;;14.18;100.00
28167;BME280;15455;53.376;-6.262;2022-07-06T05:22:43;102606.03;;;14.18;100.00
28167;BME280;15455;53.376;-6.262;2022-07-06T05:25:34;102605.16;;;14.21;100.00
28167;BME280;15455;53.376;-6.262;2022-07-06T05:28:21;102597.31;;;14.22;100.00
28167;BME280;15455;53.376;-6.262;2022-07-06T05:31:07;102611.38;;;14.26;100.00
28167;BME280;15455;53.376;-6.262;2022-07-06T05:33:54;102614.91;;;14.30;100.00
28167;BME280;15455;53.376;-6.262;2022-07-06T05:36:40;102613.19;;;14.32;100.00
28167;BME280;15455;53.376;-6.262;2022-07-06T05:39:26;102610.50;;;14.27;100.00
28167;BME280;15455;53.376;-6.262;2022-07-06T05:42:11;102614.00;;;14.28;100.00
28167;BME280;15455;53.376;-6.262;2022-07-06T05:44:58;102602.63;;;14.27;100.00
28167;BME280;15455;53.376;-6.262;2022-07-06T05:47:45;102593.03;;;14.31;100.00
28167;BME280;15455;53.376;-6.262;2022-07-06T05:50:52;102589.63;;;14.38;100.00
28167;BME280;15455;53.376;-6.262;2022-07-06T05:53:40;102588.81;;;14.45;100.00
28167;BME280;15455;53.376;-6.262;2022-07-06T05:56:26;102589.75;;;14.50;100.00
28167;BME280;15455;53.376;-6.262;2022-07-06T05:59:11;102588.88;;;14.53;100.00
28167;BME280;15455;53.376;-6.262;2022-07-06T06:01:57;102583.66;;;14.54;100.00
28167;BME280;15455;53.376;-6.262;2022-07-06T06:04:43;102595.13;;;14.61;100.00
28167;BME280;15455;53.376;-6.262;2022-07-06T06:07:29;102599.50;;;14.59;100.00
28167;BME280;15455;53.376;-6.262;2022-07-06T06:10:15;102594.28;;;14.62;100.00
28167;BME280;15455;53.376;-6.262;2022-07-06T06:13:02;102587.31;;;14.66;100.00
28167;BME280;15455;53.376;-6.262;2022-07-06T06:15:48;102587.31;;;14.66;100.00
28167;BME280;15455;53.376;-6.262;2022-07-06T06:18:34;102593.47;;;14.68;100.00
28167;BME280;15455;53.376;-6.262;2022-07-06T06:21:26;102588.19;;;14.63;100.00
28167;BME280;15455;53.376;-6.262;2022-07-06T06:24:15;102593.47;;;14.68;100.00
28167;BME280;15455;53.376;-6.262;2022-07-06T06:27:00;102590.88;;;14.69;100.00
28167;BME280;15455;53.376;-6.262;2022-07-06T06:29:46;102595.28;;;14.72;100.00
28167;BME280;15455;53.376;-6.262;2022-07-06T06:32:32;102591.75;;;14.73;100.00
28167;BME280;15455;53.376;-6.262;2022-07-06T06:35:17;102598.78;;;14.74;100.00
28167;BME280;15455;53.376;-6.262;2022-07-06T06:38:03;102610.16;;;14.71;100.00
28167;BME280;15455;53.376;-6.262;2022-07-06T06:40:48;102607.53;;;14.73;100.00
28167;BME280;15455;53.376;-6.262;2022-07-06T06:43:34;102613.69;;;14.73;100.00
28167;BME280;15455;53.376;-6.262;2022-07-06T06:46:26;102609.28;;;14.71;100.00
28167;BME280;15455;53.376;-6.262;2022-07-06T06:49:12;102610.19;;;14.77;100.00
28167;BME280;15455;53.376;-6.262;2022-07-06T06:52:00;102612.88;;;14.79;100.00
28167;BME280;15455;53.376;-6.262;2022-07-06T06:55:07;102620.78;;;14.82;100.00
28167;BME280;15455;53.376;-6.262;2022-07-06T06:57:53;102605.03;;;14.85;100.00
28167;BME280;15455;53.376;-6.262;2022-07-06T07:00:39;102612.97;;;14.91;100.00
28167;BME280;15455;53.376;-6.262;2022-07-06T07:03:24;102617.34;;;14.89;100.00
28167;BME280;15455;53.376;-6.262;2022-07-06T07:06:10;102617.47;;;15.03;100.00
28167;BME280;15455;53.376;-6.262;2022-07-06T07:08:55;102612.34;;;15.17;100.00
28167;BME280;15455;53.376;-6.262;2022-07-06T07:11:42;102620.28;;;15.26;100.00
28167;BME280;15455;53.376;-6.262;2022-07-06T07:14:27;102614.16;;;15.26;100.00
28167;BME280;15455;53.376;-6.262;2022-07-06T07:17:13;102609.75;;;15.26;100.00
28167;BME280;15455;53.376;-6.262;2022-07-06T07:19:58;102609.84;;;15.36;100.00
28167;BME280;15455;53.376;-6.262;2022-07-06T07:22:44;102604.63;;;15.43;100.00
28167;BME280;15455;53.376;-6.262;2022-07-06T07:25:29;102597.69;;;15.50;100.00
28167;BME280;15455;53.376;-6.262;2022-07-06T07:28:14;102610.88;;;15.59;100.00
28167;BME280;15455;53.376;-6.262;2022-07-06T07:31:00;102611.81;;;15.65;100.00
28167;BME280;15455;53.376;-6.262;2022-07-06T07:33:45;102600.44;;;15.72;100.00
28167;BME280;15455;53.376;-6.262;2022-07-06T07:36:31;102604.91;;;15.82;100.00
28167;BME280;15455;53.376;-6.262;2022-07-06T07:39:17;102599.69;;;15.88;100.00
28167;BME280;15455;53.376;-6.262;2022-07-06T07:42:02;102601.47;;;16.00;100.00
28167;BME280;15455;53.376;-6.262;2022-07-06T07:44:48;102609.47;;;16.20;100.00
28167;BME280;15455;53.376;-6.262;2022-07-06T07:47:34;102603.34;;;16.26;100.00
28167;BME280;15455;53.376;-6.262;2022-07-06T07:50:19;102603.34;;;16.20;100.00
28167;BME280;15455;53.376;-6.262;2022-07-06T07:53:05;102600.72;;;16.23;100.00
28167;BME280;15455;53.376;-6.262;2022-07-06T07:55:50;102597.22;;;16.35;100.00
28167;BME280;15455;53.376;-6.262;2022-07-06T07:58:36;102606.91;;;16.34;100.00
28167;BME280;15455;53.376;-6.262;2022-07-06T08:01:22;102613.94;;;16.40;100.00
28167;BME280;15455;53.376;-6.262;2022-07-06T08:04:07;102616.59;;;16.49;100.00
28167;BME280;15455;53.376;-6.262;2022-07-06T08:06:53;102615.75;;;16.52;100.00
28167;BME280;15455;53.376;-6.262;2022-07-06T08:09:45;102604.34;;;16.62;100.00
28167;BME280;15455;53.376;-6.262;2022-07-06T08:12:30;102607.00;;;16.82;100.00
28167;BME280;15455;53.376;-6.262;2022-07-06T08:15:16;102602.63;;;16.87;100.00
28167;BME280;15455;53.376;-6.262;2022-07-06T08:18:02;102599.09;;;16.85;100.00
28167;BME280;15455;53.376;-6.262;2022-07-06T08:20:49;102596.53;;;16.96;100.00
28167;BME280;15455;53.376;-6.262;2022-07-06T08:23:55;102596.50;;;17.04;100.00
28167;BME280;15455;53.376;-6.262;2022-07-06T08:26:41;102591.22;;;17.10;100.00
28167;BME280;15455;53.376;-6.262;2022-07-06T08:29:26;102589.47;;;17.19;100.00
28167;BME280;15455;53.376;-6.262;2022-07-06T08:32:12;102598.25;;;17.34;100.00
28167;BME280;15455;53.376;-6.262;2022-07-06T08:35:14;102592.97;;;17.46;100.00
28167;BME280;15455;53.376;-6.262;2022-07-06T08:37:59;102591.16;;;17.58;100.00
28167;BME280;15455;53.376;-6.262;2022-07-06T08:40:47;102590.31;;;17.54;100.00
28167;BME280;15455;53.376;-6.262;2022-07-06T08:43:34;102592.09;;;17.41;100.00
28167;BME280;15455;53.376;-6.262;2022-07-06T08:46:21;102591.22;;;17.31;100.00
28167;BME280;15455;53.376;-6.262;2022-07-06T08:49:08;102593.00;;;17.25;100.00
28167;BME280;15455;53.376;-6.262;2022-07-06T08:51:54;102590.34;;;17.22;100.00
28167;BME280;15455;53.376;-6.262;2022-07-06T08:54:40;102595.63;;;17.20;100.00
28167;BME280;15455;53.376;-6.262;2022-07-06T08:57:26;102582.44;;;17.34;100.00
28167;BME280;15455;53.376;-6.262;2022-07-06T09:00:12;102586.78;;;17.50;100.00
28167;BME280;15455;53.376;-6.262;2022-07-06T09:02:59;102578.84;;;17.64;100.00
28167;BME280;15455;53.376;-6.262;2022-07-06T09:05:46;102581.47;;;17.67;99.70
28167;BME280;15455;53.376;-6.262;2022-07-06T09:08:39;102575.34;;;17.62;99.32
28167;BME280;15455;53.376;-6.262;2022-07-06T09:11:25;102582.41;;;17.51;99.27
28167;BME280;15455;53.376;-6.262;2022-07-06T09:14:11;102571.84;;;17.39;98.84
28167;BME280;15455;53.376;-6.262;2022-07-06T09:17:04;102568.34;;;17.41;98.78
28167;BME280;15455;53.376;-6.262;2022-07-06T09:19:57;102563.94;;;17.46;98.22
28167;BME280;15455;53.376;-6.262;2022-07-06T09:22:42;102570.91;;;17.67;97.51
28167;BME280;15455;53.376;-6.262;2022-07-06T09:25:29;102576.16;;;17.74;98.15
28167;BME280;15455;53.376;-6.262;2022-07-06T09:28:14;102578.81;;;17.70;97.31
28167;BME280;15455;53.376;-6.262;2022-07-06T09:31:06;102567.34;;;17.85;96.94
28167;BME280;15455;53.376;-6.262;2022-07-06T09:34:04;102585.75;;;18.12;95.95
28167;BME280;15455;53.376;-6.262;2022-07-06T09:36:50;102579.56;;;18.17;94.29
28167;BME280;15455;53.376;-6.262;2022-07-06T09:39:37;102571.63;;;18.20;92.45
28167;BME280;15455;53.376;-6.262;2022-07-06T09:42:26;102575.16;;;18.16;92.66
28167;BME280;15455;53.376;-6.262;2022-07-06T09:45:12;102575.13;;;18.22;93.76
28167;BME280;15455;53.376;-6.262;2022-07-06T09:48:05;102563.66;;;18.28;93.75
28167;BME280;15455;53.376;-6.262;2022-07-06T09:50:59;102562.63;;;18.54;93.04
28167;BME280;15455;53.376;-6.262;2022-07-06T09:53:51;102567.03;;;18.55;92.73
28167;BME280;15455;53.376;-6.262;2022-07-06T09:56:41;102567.72;;;18.80;93.37
28167;BME280;15455;53.376;-6.262;2022-07-06T09:59:30;102578.31;;;18.86;93.08
28167;BME280;15455;53.376;-6.262;2022-07-06T10:02:16;102563.34;;;18.74;93.12
28167;BME280;15455;53.376;-6.262;2022-07-06T10:05:03;102570.47;;;18.68;94.35
28167;BME280;15455;53.376;-6.262;2022-07-06T10:07:50;102563.47;;;18.61;94.98
28167;BME280;15455;53.376;-6.262;2022-07-06T10:10:38;102549.41;;;18.52;94.34
28167;BME280;15455;53.376;-6.262;2022-07-06T10:13:24;102544.16;;;18.48;92.72
28167;BME280;15455;53.376;-6.262;2022-07-06T10:16:11;102530.06;;;18.44;93.17
28167;BME280;15455;53.376;-6.262;2022-07-06T10:18:57;102526.53;;;18.45;94.61
28167;BME280;15455;53.376;-6.262;2022-07-06T10:21:45;102537.97;;;18.52;94.71
28167;BME280;15455;53.376;-6.262;2022-07-06T10:24:31;102535.28;;;18.55;94.19
28167;BME280;15455;53.376;-6.262;2022-07-06T10:27:20;102546.66;;;18.63;96.20
28167;BME280;15455;53.376;-6.262;2022-07-06T10:30:06;102535.25;;;18.60;94.90
28167;BME280;15455;53.376;-6.262;2022-07-06T10:32:52;102539.69;;;18.57;93.22
28167;BME280;15455;53.376;-6.262;2022-07-06T10:35:40;102536.16;;;18.57;93.63
28167;BME280;15455;53.376;-6.262;2022-07-06T10:38:32;102533.41;;;18.71;93.65
28167;BME280;15455;53.376;-6.262;2022-07-06T10:41:17;102529.63;;;19.03;92.49
28167;BME280;15455;53.376;-6.262;2022-07-06T10:44:25;102533.78;;;19.30;90.07
28167;BME280;15455;53.376;-6.262;2022-07-06T10:47:11;102526.66;;;19.38;90.18
28167;BME280;15455;53.376;-6.262;2022-07-06T10:50:01;102520.34;;;19.49;89.06
28167;BME280;15455;53.376;-6.262;2022-07-06T10:52:50;102537.06;;;19.52;88.70
28167;BME280;15455;53.376;-6.262;2022-07-06T10:55:38;102532.47;;;19.68;92.17
28167;BME280;15455;53.376;-6.262;2022-07-06T11:01:28;102539.50;;;19.71;89.06
28167;BME280;15455;53.376;-6.262;2022-07-06T11:04:16;102543.09;;;19.65;87.83
28167;BME280;15455;53.376;-6.262;2022-07-06T11:07:07;102542.97;;;19.77;88.00
28167;BME280;15455;53.376;-6.262;2022-07-06T11:09:58;102546.06;;;20.13;85.53
28167;BME280;15455;53.376;-6.262;2022-07-06T11:12:45;102549.69;;;20.08;85.15
28167;BME280;15455;53.376;-6.262;2022-07-06T11:15:49;102540.75;;;20.12;83.56
28167;BME280;15455;53.376;-6.262;2022-07-06T11:18:42;102540.59;;;20.24;84.88
28167;BME280;15455;53.376;-6.262;2022-07-06T11:24:34;102541.59;;;20.17;82.95
28167;BME280;15455;53.376;-6.262;2022-07-06T11:27:22;102538.06;;;20.18;84.00
28167;BME280;15455;53.376;-6.262;2022-07-06T11:30:08;102538.41;;;19.89;84.18
28167;BME280;15455;53.376;-6.262;2022-07-06T11:32:57;102526.97;;;19.87;86.18
28167;BME280;15455;53.376;-6.262;2022-07-06T11:35:43;102529.47;;;20.01;86.92
28167;BME280;15455;53.376;-6.262;2022-07-06T11:38:28;102538.38;;;19.95;85.90
28167;BME280;15455;53.376;-6.262;2022-07-06T11:41:15;102537.69;;;19.77;86.14
28167;BME280;15455;53.376;-6.262;2022-07-06T11:44:01;102532.44;;;19.71;87.39
28167;BME280;15455;53.376;-6.262;2022-07-06T11:46:46;102532.31;;;19.84;87.58
28167;BME280;15455;53.376;-6.262;2022-07-06T11:49:34;102522.59;;;19.84;87.57
28167;BME280;15455;53.376;-6.262;2022-07-06T11:52:20;102522.53;;;19.87;87.04
28167;BME280;15455;53.376;-6.262;2022-07-06T11:55:09;102504.44;;;20.20;86.95
28167;BME280;15455;53.376;-6.262;2022-07-06T11:57:56;102505.97;;;20.37;86.07
28167;BME280;15455;53.376;-6.262;2022-07-06T12:00:43;102501.53;;;20.37;86.24
28167;BME280;15455;53.376;-6.262;2022-07-06T12:03:28;102499.56;;;20.50;86.89
28167;BME280;15455;53.376;-6.262;2022-07-06T12:09:01;102504.50;;;20.16;86.12
28167;BME280;15455;53.376;-6.262;2022-07-06T12:11:49;102506.69;;;20.46;86.28
28167;BME280;15455;53.376;-6.262;2022-07-06T12:14:37;102493.03;;;20.71;85.64
28167;BME280;15455;53.376;-6.262;2022-07-06T12:17:23;102499.84;;;20.88;83.58
28167;BME280;15455;53.376;-6.262;2022-07-06T12:20:09;102493.88;;;20.75;83.65
28167;BME280;15455;53.376;-6.262;2022-07-06T12:23:06;102496.50;;;20.76;84.56
28167;BME280;15455;53.376;-6.262;2022-07-06T12:25:53;102489.78;;;20.52;83.40
28167;BME280;15455;53.376;-6.262;2022-07-06T12:28:41;102480.97;;;20.52;83.97
28167;BME280;15455;53.376;-6.262;2022-07-06T12:31:35;102488.31;;;20.34;84.98
28167;BME280;15455;53.376;-6.262;2022-07-06T12:34:23;102483.78;;;20.41;85.88
28167;BME280;15455;53.376;-6.262;2022-07-06T12:37:10;102476.44;;;20.58;86.93
28167;BME280;15455;53.376;-6.262;2022-07-06T12:39:57;102479.88;;;20.63;86.54
28167;BME280;15455;53.376;-6.262;2022-07-06T12:42:47;102482.66;;;21.07;83.67
28167;BME280;15455;53.376;-6.262;2022-07-06T12:45:33;102487.41;;;20.90;83.05
28167;BME280;15455;53.376;-6.262;2022-07-06T12:48:20;102481.38;;;20.81;83.39
28167;BME280;15455;53.376;-6.262;2022-07-06T12:51:06;102473.53;;;20.74;83.42
28167;BME280;15455;53.376;-6.262;2022-07-06T12:53:53;102467.50;;;20.67;84.80
28167;BME280;15455;53.376;-6.262;2022-07-06T12:57:07;102461.75;;;20.37;86.57
28167;BME280;15455;53.376;-6.262;2022-07-06T13:02:39;102454.63;;;20.39;87.74
28167;BME280;15455;53.376;-6.262;2022-07-06T13:05:49;102466.56;;;20.13;88.76
28167;BME280;15455;53.376;-6.262;2022-07-06T13:08:35;102442.72;;;20.09;90.05
28167;BME280;15455;53.376;-6.262;2022-07-06T13:11:21;102457.56;;;20.22;88.87
28167;BME280;15455;53.376;-6.262;2022-07-06T13:14:06;102446.31;;;20.08;87.17
28167;BME280;15455;53.376;-6.262;2022-07-06T13:16:52;102446.31;;;20.05;87.98
28167;BME280;15455;53.376;-6.262;2022-07-06T13:19:39;102449.88;;;20.05;88.36
28167;BME280;15455;53.376;-6.262;2022-07-06T13:22:28;102447.91;;;20.18;87.91
28167;BME280;15455;53.376;-6.262;2022-07-06T13:25:13;102439.59;;;20.41;86.64
28167;BME280;15455;53.376;-6.262;2022-07-06T13:27:58;102434.09;;;21.04;85.66
28167;BME280;15455;53.376;-6.262;2022-07-06T13:30:44;102435.97;;;21.42;80.49
28167;BME280;15455;53.376;-6.262;2022-07-06T13:33:29;102441.03;;;21.11;80.31
28167;BME280;15455;53.376;-6.262;2022-07-06T13:36:15;102431.44;;;21.04;81.19
28167;BME280;15455;53.376;-6.262;2022-07-06T13:39:02;102435.31;;;20.84;82.61
28167;BME280;15455;53.376;-6.262;2022-07-06T13:41:48;102439.53;;;20.44;84.43
28167;BME280;15455;53.376;-6.262;2022-07-06T13:44:33;102451.31;;;20.26;84.39
28167;BME280;15455;53.376;-6.262;2022-07-06T13:47:18;102462.91;;;20.21;85.75
28167;BME280;15455;53.376;-6.262;2022-07-06T13:50:04;102449.56;;;20.25;85.36
28167;BME280;15455;53.376;-6.262;2022-07-06T13:52:50;102453.47;;;20.01;87.15
28167;BME280;15455;53.376;-6.262;2022-07-06T13:55:35;102441.69;;;20.21;86.66
28167;BME280;15455;53.376;-6.262;2022-07-06T13:58:21;102446.44;;;20.55;86.50
28167;BME280;15455;53.376;-6.262;2022-07-06T14:01:06;102434.56;;;20.77;84.85
28167;BME280;15455;53.376;-6.262;2022-07-06T14:03:52;102444.25;;;20.81;83.46
28167;BME280;15455;53.376;-6.262;2022-07-06T14:06:38;102448.03;;;20.65;85.68
28167;BME280;15455;53.376;-6.262;2022-07-06T14:09:23;102451.50;;;20.70;87.35
28167;BME280;15455;53.376;-6.262;2022-07-06T14:12:09;102426.28;;;20.96;84.76
28167;BME280;15455;53.376;-6.262;2022-07-06T14:14:54;102426.03;;;21.08;82.80
28167;BME280;15455;53.376;-6.262;2022-07-06T14:17:40;102429.88;;;20.92;84.25
28167;BME280;15455;53.376;-6.262;2022-07-06T14:20:26;102414.84;;;20.91;84.41
28167;BME280;15455;53.376;-6.262;2022-07-06T14:23:12;102433.25;;;21.00;85.49
28167;BME280;15455;53.376;-6.262;2022-07-06T14:25:58;102435.53;;;20.73;85.38